Time;durP1;ratioP1;P1;durP2;ratioP2;P2;SDS_P1;SDS_P2;PMS_P1;PMS_P2;Temp;Humidity;BMP_temperature;BMP_pressure;BME280_temperature;BME280_humidity;BME280_pressure;Samples;Min_cycle;Max_cycle;Signal;HPM_P1;HPM_P2
2023/07/20 00:01:49;;;;;;;3.65;1.88;;;;;;;;;;4977942;28;20046;-68
2023/07/20 00:04:14;;;;;;;5.75;1.83;;;;;;;;;;4977303;28;20050;-68
2023/07/20 00:06:40;;;;;;;4.07;1.88;;;;;;;;;;4977400;28;20029;-68
2023/07/20 00:09:06;;;;;;;5.07;1.60;;;;;;;;;;4976543;28;20041;-68
2023/07/20 00:11:32;;;;;;;7.00;2.08;;;;;;;;;;4977150;28;20437;-68
2023/07/20 00:13:57;;;;;;;8.20;2.20;;;;;;;;;;4976258;28;20114;-68
2023/07/20 00:16:23;;;;;;;3.75;1.95;;;;;;;;;;4977150;28;20046;-68
2023/07/20 00:18:48;;;;;;;3.45;2.17;;;;;;;;;;4977133;28;20109;-68
2023/07/20 00:21:13;;;;;;;3.60;1.73;;;;;;;;;;4977088;28;20070;-68
2023/07/20 00:23:39;;;;;;;4.30;2.08;;;;;;;;;;4976050;28;20030;-68
2023/07/20 00:26:04;;;;;;;4.28;1.80;;;;;;;;;;4977075;28;20105;-68
2023/07/20 00:28:29;;;;;;;4.25;1.80;;;;;;;;;;4977164;28;20041;-68
2023/07/20 00:30:55;;;;;;;4.18;1.52;;;;;;;;;;4975672;28;20042;-68
2023/07/20 00:33:20;;;;;;;4.38;1.73;;;;;;;;;;4977167;28;20038;-68
2023/07/20 00:35:46;;;;;;;3.95;1.67;;;;;;;;;;4976790;28;20466;-67
2023/07/20 00:38:11;;;;;;;7.50;1.75;;;;;;;;;;4976899;28;20030;-68
2023/07/20 00:40:41;;;;;;;3.13;1.67;;;;;;;;;;4976859;28;20109;-68
2023/07/20 00:43:07;;;;;;;4.50;1.90;;;;;;;;;;4975732;28;20046;-68
2023/07/20 00:45:33;;;;;;;9.32;2.35;;;;;;;;;;4975650;28;20053;-68
2023/07/20 00:47:59;;;;;;;5.22;1.75;;;;;;;;;;4975687;28;20471;-68
2023/07/20 00:50:26;;;;;;;7.82;1.80;;;;;;;;;;4976637;28;20102;-68
2023/07/20 00:52:51;;;;;;;3.75;1.77;;;;;;;;;;4976758;28;20034;-68
2023/07/20 00:55:18;;;;;;;8.20;2.17;;;;;;;;;;4976691;28;20115;-68
2023/07/20 00:57:44;;;;;;;6.55;2.00;;;;;;;;;;4975256;28;20037;-68
2023/07/20 01:00:10;;;;;;;4.10;1.67;;;;;;;;;;4976642;28;20065;-68
2023/07/20 01:02:36;;;;;;;5.90;1.83;;;;;;;;;;4976284;28;20030;-68
2023/07/20 01:05:03;;;;;;;5.93;1.85;;;;;;;;;;4976537;28;20027;-68
2023/07/20 01:07:36;;;;;;;5.45;1.75;;;;;;;;;;4972965;28;20038;-68
2023/07/20 01:10:10;;;;;;;7.20;1.80;;;;;;;;;;4971621;28;20073;-68
2023/07/20 01:12:39;;;;;;;4.82;2.05;;;;;;;;;;4976233;28;20031;-67
2023/07/20 01:15:07;;;;;;;5.18;1.63;;;;;;;;;;4976344;28;20101;-68
2023/07/20 01:17:33;;;;;;;6.32;1.98;;;;;;;;;;4975733;28;20534;-68
2023/07/20 01:19:58;;;;;;;11.68;1.65;;;;;;;;;;4976002;28;20114;-68
2023/07/20 01:22:52;;;;;;;5.07;2.03;;;;;;;;;;4975705;28;20059;-68
2023/07/20 01:25:55;;;;;;;3.28;1.73;;;;;;;;;;4974888;28;20069;-68
2023/07/20 01:28:39;;;;;;;3.45;1.60;;;;;;;;;;4975933;28;20043;-68
2023/07/20 01:31:20;;;;;;;5.30;1.70;;;;;;;;;;4967363;28;20041;-68
2023/07/20 01:33:47;;;;;;;5.95;1.90;;;;;;;;;;4961375;28;20588;-68
2023/07/20 01:36:13;;;;;;;5.15;1.83;;;;;;;;;;4974217;28;20493;-68
2023/07/20 01:38:39;;;;;;;8.45;2.33;;;;;;;;;;4974663;28;20048;-68
2023/07/20 01:41:05;;;;;;;4.07;2.03;;;;;;;;;;4975756;28;20034;-68
2023/07/20 01:43:30;;;;;;;6.28;2.17;;;;;;;;;;4974523;28;20114;-68
2023/07/20 01:45:56;;;;;;;5.20;1.90;;;;;;;;;;4975574;28;20094;-68
2023/07/20 01:48:21;;;;;;;4.35;2.10;;;;;;;;;;4975652;28;20034;-68
2023/07/20 01:50:46;;;;;;;3.95;1.63;;;;;;;;;;4975592;28;20364;-68
2023/07/20 01:53:12;;;;;;;4.18;2.00;;;;;;;;;;4975639;28;20039;-68
2023/07/20 01:55:37;;;;;;;6.50;2.03;;;;;;;;;;4975401;28;20475;-69
2023/07/20 01:58:03;;;;;;;4.93;1.90;;;;;;;;;;4975395;28;20035;-70
2023/07/20 02:00:29;;;;;;;5.00;1.90;;;;;;;;;;4975326;28;20061;-69
2023/07/20 02:02:54;;;;;;;6.95;2.00;;;;;;;;;;4975359;28;20039;-69
2023/07/20 02:05:19;;;;;;;4.88;1.80;;;;;;;;;;4975219;28;20487;-69
2023/07/20 02:07:45;;;;;;;9.02;2.38;;;;;;;;;;4975059;28;20411;-70
2023/07/20 02:10:10;;;;;;;8.88;2.20;;;;;;;;;;4974852;28;20041;-69
2023/07/20 02:12:35;;;;;;;6.05;2.10;;;;;;;;;;4974836;28;20030;-69
2023/07/20 02:15:02;;;;;;;3.70;1.83;;;;;;;;;;4975240;28;20045;-69
2023/07/20 02:17:27;;;;;;;4.78;2.08;;;;;;;;;;4974943;28;20039;-70
2023/07/20 02:19:54;;;;;;;6.93;2.15;;;;;;;;;;4974838;28;20034;-70
2023/07/20 02:22:19;;;;;;;4.03;2.10;;;;;;;;;;4975027;28;20045;-70
2023/07/20 02:24:44;;;;;;;9.40;1.92;;;;;;;;;;4974992;28;20043;-69
2023/07/20 02:27:10;;;;;;;5.55;2.03;;;;;;;;;;4975044;28;20086;-69
2023/07/20 02:29:35;;;;;;;6.47;1.92;;;;;;;;;;4974804;28;20042;-69
2023/07/20 02:32:01;;;;;;;9.63;2.20;;;;;;;;;;4975036;28;20093;-69
2023/07/20 02:34:26;;;;;;;6.97;2.10;;;;;;;;;;4974447;28;20027;-69
2023/07/20 02:36:52;;;;;;;3.88;1.80;;;;;;;;;;4973110;28;20081;-69
2023/07/20 02:39:17;;;;;;;5.32;1.77;;;;;;;;;;4973573;28;20041;-69
2023/07/20 02:41:43;;;;;;;4.38;2.20;;;;;;;;;;4974696;28;20034;-69
2023/07/20 02:44:08;;;;;;;5.80;2.08;;;;;;;;;;4974868;28;20043;-69
2023/07/20 02:46:35;;;;;;;8.10;2.67;;;;;;;;;;4974091;28;20125;-69
2023/07/20 02:49:00;;;;;;;7.95;2.25;;;;;;;;;;4974591;28;20022;-69
2023/07/20 02:51:25;;;;;;;4.28;2.15;;;;;;;;;;4974669;28;20510;-69
2023/07/20 02:53:51;;;;;;;11.23;2.65;;;;;;;;;;4973252;28;20499;-69
2023/07/20 02:56:17;;;;;;;6.22;2.28;;;;;;;;;;4972948;28;20455;-69
2023/07/20 02:58:43;;;;;;;5.47;2.28;;;;;;;;;;4974583;28;20070;-69
2023/07/20 03:01:09;;;;;;;10.23;2.38;;;;;;;;;;4974044;28;20078;-70
2023/07/20 03:03:38;;;;;;;6.40;2.80;;;;;;;;;;4974494;28;20038;-69
2023/07/20 03:06:04;;;;;;;5.53;2.25;;;;;;;;;;4974092;28;20522;-69
2023/07/20 03:08:29;;;;;;;5.32;2.33;;;;;;;;;;4974358;28;20062;-69
2023/07/20 03:10:55;;;;;;;4.93;2.40;;;;;;;;;;4974498;28;20383;-69
2023/07/20 03:13:20;;;;;;;4.80;2.50;;;;;;;;;;4973316;28;20383;-69
2023/07/20 03:15:45;;;;;;;6.15;2.10;;;;;;;;;;4974299;28;20121;-69
2023/07/20 03:18:11;;;;;;;6.85;2.53;;;;;;;;;;4974427;28;20027;-69
2023/07/20 03:20:37;;;;;;;7.55;2.08;;;;;;;;;;4973915;28;20046;-69
2023/07/20 03:23:02;;;;;;;4.35;2.00;;;;;;;;;;4974322;28;20046;-69
2023/07/20 03:25:27;;;;;;;7.20;2.35;;;;;;;;;;4974338;28;20103;-69
2023/07/20 03:27:53;;;;;;;5.60;2.28;;;;;;;;;;4974229;28;20039;-69
2023/07/20 03:30:18;;;;;;;5.22;2.40;;;;;;;;;;4974181;28;20038;-69
2023/07/20 03:32:43;;;;;;;7.22;2.35;;;;;;;;;;4974241;28;20059;-69
2023/07/20 03:35:09;;;;;;;7.15;2.05;;;;;;;;;;4974206;28;20101;-69
2023/07/20 03:37:36;;;;;;;6.38;2.20;;;;;;;;;;4973934;28;20089;-69
2023/07/20 03:40:02;;;;;;;11.07;2.10;;;;;;;;;;4972969;28;20106;-69
2023/07/20 03:42:28;;;;;;;3.78;1.98;;;;;;;;;;4974287;28;20058;-69
2023/07/20 03:44:53;;;;;;;5.72;2.28;;;;;;;;;;4972598;28;20081;-70
2023/07/20 03:47:18;;;;;;;9.02;2.22;;;;;;;;;;4974174;28;20034;-69
2023/07/20 03:49:44;;;;;;;4.82;2.13;;;;;;;;;;4972845;28;20101;-69
2023/07/20 03:52:09;;;;;;;7.43;2.20;;;;;;;;;;4973966;28;20085;-69
2023/07/20 03:54:34;;;;;;;3.45;2.05;;;;;;;;;;4974060;28;20043;-69
2023/07/20 03:57:00;;;;;;;4.35;2.13;;;;;;;;;;4972688;28;20038;-69
2023/07/20 03:59:26;;;;;;;4.07;2.28;;;;;;;;;;4976176;28;20118;-70
2023/07/20 04:01:51;;;;;;;6.95;2.40;;;;;;;;;;4976365;28;20027;-69
2023/07/20 04:04:17;;;;;;;3.75;1.80;;;;;;;;;;4976222;28;20534;-69
2023/07/20 04:06:44;;;;;;;5.20;2.10;;;;;;;;;;4977621;28;20073;-69
2023/07/20 04:09:10;;;;;;;6.13;2.10;;;;;;;;;;4975400;28;20042;-69
2023/07/20 04:11:36;;;;;;;3.80;2.35;;;;;;;;;;4977329;28;20058;-69
2023/07/20 04:14:01;;;;;;;8.27;2.30;;;;;;;;;;4977450;28;20043;-69
2023/07/20 04:16:27;;;;;;;5.07;2.45;;;;;;;;;;4977188;28;20042;-69
2023/07/20 04:18:54;;;;;;;4.25;2.20;;;;;;;;;;4971278;28;20042;-69
2023/07/20 04:21:20;;;;;;;4.57;2.10;;;;;;;;;;4976044;28;20046;-69
2023/07/20 04:23:45;;;;;;;7.30;2.38;;;;;;;;;;4977377;28;20026;-69
2023/07/20 04:26:12;;;;;;;5.63;2.33;;;;;;;;;;4977309;28;20034;-69
2023/07/20 04:28:38;;;;;;;8.00;2.08;;;;;;;;;;4974294;28;20113;-69
2023/07/20 04:31:11;;;;;;;6.75;2.55;;;;;;;;;;4976765;28;20121;-69
2023/07/20 04:33:37;;;;;;;8.85;2.30;;;;;;;;;;4963930;28;20046;-69
2023/07/20 04:36:02;;;;;;;5.63;2.28;;;;;;;;;;4977140;28;20054;-69
2023/07/20 04:38:28;;;;;;;8.80;2.40;;;;;;;;;;4975648;28;20046;-69
2023/07/20 04:40:53;;;;;;;4.82;2.20;;;;;;;;;;4976715;28;20047;-69
2023/07/20 04:43:18;;;;;;;5.88;2.53;;;;;;;;;;4976735;28;20038;-69
2023/07/20 04:45:44;;;;;;;11.05;2.70;;;;;;;;;;4976495;28;20054;-69
2023/07/20 04:48:11;;;;;;;7.70;2.83;;;;;;;;;;4975718;28;20070;-69
2023/07/20 04:50:37;;;;;;;4.13;2.35;;;;;;;;;;4974856;28;20031;-70
2023/07/20 04:53:03;;;;;;;4.90;2.17;;;;;;;;;;4975632;28;20030;-69
2023/07/20 04:55:28;;;;;;;7.40;2.55;;;;;;;;;;4976597;28;20109;-69
2023/07/20 04:57:53;;;;;;;6.70;2.40;;;;;;;;;;4976579;28;20035;-69
2023/07/20 05:00:19;;;;;;;7.55;2.42;;;;;;;;;;4976611;28;20108;-70
2023/07/20 05:02:47;;;;;;;5.38;2.47;;;;;;;;;;4975381;28;20549;-69
2023/07/20 05:05:12;;;;;;;5.63;2.22;;;;;;;;;;4976419;28;20031;-69
2023/07/20 05:07:38;;;;;;;8.02;2.60;;;;;;;;;;4976558;28;20110;-69
2023/07/20 05:10:03;;;;;;;10.35;2.65;;;;;;;;;;4975614;28;20034;-69
2023/07/20 05:12:29;;;;;;;7.15;2.20;;;;;;;;;;4976233;28;20042;-70
2023/07/20 05:14:54;;;;;;;4.55;2.30;;;;;;;;;;4976369;28;20038;-69
2023/07/20 05:17:19;;;;;;;4.82;2.45;;;;;;;;;;4975874;28;20047;-70
2023/07/20 05:19:45;;;;;;;12.93;2.05;;;;;;;;;;4974922;28;20463;-69
2023/07/20 05:22:11;;;;;;;2.88;1.80;;;;;;;;;;4976402;28;20113;-69
2023/07/20 05:24:37;;;;;;;3.47;1.73;;;;;;;;;;4975948;28;20065;-69
2023/07/20 05:27:03;;;;;;;3.65;1.88;;;;;;;;;;4975891;28;20542;-69
2023/07/20 05:29:28;;;;;;;5.70;1.80;;;;;;;;;;4975886;28;20407;-69
2023/07/20 05:31:53;;;;;;;6.07;1.98;;;;;;;;;;4974518;28;20090;-69
2023/07/20 05:34:19;;;;;;;6.72;1.88;;;;;;;;;;4975634;28;20035;-70
2023/07/20 05:36:44;;;;;;;6.05;2.03;;;;;;;;;;4975901;28;20031;-69
2023/07/20 05:39:09;;;;;;;4.10;1.83;;;;;;;;;;4975848;28;20149;-69
2023/07/20 05:41:35;;;;;;;3.78;1.90;;;;;;;;;;4975621;28;20037;-69
2023/07/20 05:44:00;;;;;;;7.20;2.20;;;;;;;;;;4976269;28;20027;-69
2023/07/20 05:46:25;;;;;;;4.10;1.83;;;;;;;;;;4975544;28;20484;-69
2023/07/20 05:48:51;;;;;;;5.07;1.95;;;;;;;;;;4975429;28;20419;-69
2023/07/20 05:51:16;;;;;;;5.05;1.90;;;;;;;;;;4974365;28;20062;-69
2023/07/20 05:53:41;;;;;;;3.70;2.13;;;;;;;;;;4974362;28;20123;-69
2023/07/20 05:56:10;;;;;;;4.35;1.98;;;;;;;;;;4975214;28;20038;-69
2023/07/20 05:58:36;;;;;;;3.95;1.90;;;;;;;;;;4975440;28;20038;-69
2023/07/20 06:01:02;;;;;;;3.22;1.75;;;;;;;;;;4975645;28;20055;-69
2023/07/20 06:03:28;;;;;;;2.92;1.80;;;;;;;;;;4975297;28;20042;-69
2023/07/20 06:05:58;;;;;;;4.95;1.90;;;;;;;;;;4974043;28;20030;-69
2023/07/20 06:08:24;;;;;;;2.97;1.70;;;;;;;;;;4975242;28;20046;-69
2023/07/20 06:10:51;;;;;;;4.60;1.98;;;;;;;;;;4974971;28;20031;-69
2023/07/20 06:13:17;;;;;;;5.20;1.88;;;;;;;;;;4973784;28;20537;-69
2023/07/20 06:15:43;;;;;;;4.45;1.75;;;;;;;;;;4974793;28;20082;-69
2023/07/20 06:18:08;;;;;;;5.93;2.00;;;;;;;;;;4974085;28;20099;-69
2023/07/20 06:20:33;;;;;;;2.50;1.60;;;;;;;;;;4973138;28;20468;-69
2023/07/20 06:22:59;;;;;;;5.68;1.52;;;;;;;;;;4974985;28;20038;-69
2023/07/20 06:25:24;;;;;;;3.72;2.08;;;;;;;;;;4975073;28;20081;-69
2023/07/20 06:27:53;;;;;;;3.65;1.83;;;;;;;;;;4974930;28;20406;-69
2023/07/20 06:30:19;;;;;;;4.07;1.52;;;;;;;;;;4973714;28;20070;-69
2023/07/20 06:32:44;;;;;;;2.47;1.58;;;;;;;;;;4974806;28;20113;-69
2023/07/20 06:35:10;;;;;;;5.20;1.83;;;;;;;;;;4973601;28;20067;-69
2023/07/20 06:37:35;;;;;;;6.35;1.60;;;;;;;;;;4974534;28;20039;-70
2023/07/20 06:40:03;;;;;;;3.15;1.58;;;;;;;;;;4972991;28;20097;-69
2023/07/20 06:42:28;;;;;;;2.72;1.50;;;;;;;;;;4973710;28;20386;-69
2023/07/20 06:44:54;;;;;;;3.85;1.60;;;;;;;;;;4974706;28;20049;-69
2023/07/20 06:47:19;;;;;;;3.83;1.50;;;;;;;;;;4974612;28;20030;-70
2023/07/20 06:49:44;;;;;;;4.25;1.73;;;;;;;;;;4974359;28;20521;-69
2023/07/20 06:52:10;;;;;;;5.00;1.70;;;;;;;;;;4973521;28;20063;-69
2023/07/20 06:54:35;;;;;;;4.43;1.50;;;;;;;;;;4974221;28;20043;-69
2023/07/20 06:57:00;;;;;;;2.63;1.33;;;;;;;;;;4974522;28;20031;-70
2023/07/20 06:59:26;;;;;;;6.93;1.92;;;;;;;;;;4974323;28;20376;-69
2023/07/20 07:01:51;;;;;;;2.35;1.30;;;;;;;;;;4974581;28;20078;-70
2023/07/20 07:04:16;;;;;;;2.28;1.40;;;;;;;;;;4973386;28;20035;-70
2023/07/20 07:06:42;;;;;;;1.75;1.05;;;;;;;;;;4974056;28;20134;-70
2023/07/20 07:09:08;;;;;;;2.08;1.20;;;;;;;;;;4974389;28;20043;-70
2023/07/20 07:11:33;;;;;;;2.15;1.23;;;;;;;;;;4974210;28;20093;-70
2023/07/20 07:13:59;;;;;;;4.50;1.92;;;;;;;;;;4974439;28;20043;-68
2023/07/20 07:16:24;;;;;;;3.13;1.40;;;;;;;;;;4973205;28;20459;-68
2023/07/20 07:18:50;;;;;;;3.42;1.30;;;;;;;;;;4974292;28;20045;-68
2023/07/20 07:21:16;;;;;;;1.83;1.13;;;;;;;;;;4974449;28;20041;-68
2023/07/20 07:23:41;;;;;;;6.15;1.50;;;;;;;;;;4974168;28;20031;-68
2023/07/20 07:26:07;;;;;;;3.17;1.20;;;;;;;;;;4974431;28;20442;-68
2023/07/20 07:28:32;;;;;;;6.60;1.40;;;;;;;;;;4974203;28;20057;-69
2023/07/20 07:30:58;;;;;;;2.58;1.45;;;;;;;;;;4974195;28;20053;-69
2023/07/20 07:33:23;;;;;;;3.13;1.23;;;;;;;;;;4977973;28;20367;-69
2023/07/20 07:35:50;;;;;;;2.30;1.25;;;;;;;;;;4978263;28;20057;-69
2023/07/20 07:38:16;;;;;;;5.75;1.30;;;;;;;;;;4977922;28;20109;-68
2023/07/20 07:40:42;;;;;;;2.08;1.10;;;;;;;;;;4978072;28;20476;-69
2023/07/20 07:43:08;;;;;;;3.20;1.13;;;;;;;;;;4977949;28;20507;-68
2023/07/20 07:45:35;;;;;;;2.97;1.38;;;;;;;;;;4976786;28;20383;-69
2023/07/20 07:48:02;;;;;;;4.70;1.30;;;;;;;;;;4977969;28;20023;-69
2023/07/20 07:50:27;;;;;;;3.08;1.40;;;;;;;;;;4967774;28;20038;-68
2023/07/20 07:52:52;;;;;;;2.90;1.48;;;;;;;;;;4977729;28;20091;-69
2023/07/20 07:55:18;;;;;;;3.28;1.38;;;;;;;;;;4977800;28;20114;-69
2023/07/20 07:57:43;;;;;;;7.00;1.45;;;;;;;;;;4977507;28;20463;-69
2023/07/20 08:00:14;;;;;;;3.03;1.30;;;;;;;;;;4977665;28;20110;-69
2023/07/20 08:02:40;;;;;;;3.00;1.35;;;;;;;;;;4977632;28;20031;-69
2023/07/20 08:05:06;;;;;;;3.30;1.50;;;;;;;;;;4976528;28;20435;-69
2023/07/20 08:07:32;;;;;;;2.20;1.30;;;;;;;;;;4977453;28;20033;-69
2023/07/20 08:09:57;;;;;;;3.38;1.20;;;;;;;;;;4976353;28;20081;-69
2023/07/20 08:12:24;;;;;;;4.10;1.23;;;;;;;;;;4977078;28;20093;-69
2023/07/20 08:14:49;;;;;;;3.80;1.58;;;;;;;;;;4977384;28;20034;-69
2023/07/20 08:17:15;;;;;;;2.20;1.20;;;;;;;;;;4977437;28;20089;-69
2023/07/20 08:19:41;;;;;;;9.85;1.55;;;;;;;;;;4977212;28;20057;-69
2023/07/20 08:22:07;;;;;;;3.65;1.40;;;;;;;;;;4977190;28;20035;-69
2023/07/20 08:24:33;;;;;;;3.72;1.25;;;;;;;;;;4977361;28;20119;-69
2023/07/20 08:26:58;;;;;;;3.17;1.55;;;;;;;;;;4977069;28;20039;-69
2023/07/20 08:29:24;;;;;;;3.20;1.67;;;;;;;;;;4976761;28;20034;-70
2023/07/20 08:31:49;;;;;;;3.75;1.52;;;;;;;;;;4977167;28;20123;-69
2023/07/20 08:34:14;;;;;;;2.72;1.10;;;;;;;;;;4976895;28;20050;-69
2023/07/20 08:36:40;;;;;;;2.72;1.20;;;;;;;;;;4977125;28;20053;-70
2023/07/20 08:39:05;;;;;;;2.13;1.02;;;;;;;;;;4976779;28;20058;-69
2023/07/20 08:41:31;;;;;;;5.18;1.13;;;;;;;;;;4975970;28;20049;-69
2023/07/20 08:43:57;;;;;;;2.50;1.50;;;;;;;;;;4976247;28;20030;-69
2023/07/20 08:46:23;;;;;;;4.38;1.48;;;;;;;;;;4976749;28;20023;-69
2023/07/20 08:48:49;;;;;;;6.85;1.38;;;;;;;;;;4972594;28;20050;-69
2023/07/20 08:51:15;;;;;;;4.28;1.42;;;;;;;;;;4975471;28;20387;-69
2023/07/20 08:53:41;;;;;;;4.45;1.60;;;;;;;;;;4976656;28;20061;-68
2023/07/20 08:56:06;;;;;;;2.95;1.30;;;;;;;;;;4976650;28;20082;-68
2023/07/20 08:58:33;;;;;;;2.67;1.30;;;;;;;;;;4976424;28;20031;-69
2023/07/20 09:01:00;;;;;;;3.47;1.92;;;;;;;;;;4975351;28;20383;-69
2023/07/20 09:03:26;;;;;;;2.47;1.25;;;;;;;;;;4975210;28;20113;-69
2023/07/20 09:05:52;;;;;;;4.07;1.40;;;;;;;;;;4976418;28;20039;-69
2023/07/20 09:08:17;;;;;;;3.53;1.35;;;;;;;;;;4976537;28;20039;-69
2023/07/20 09:10:42;;;;;;;3.97;1.40;;;;;;;;;;4976385;28;20089;-69
2023/07/20 09:13:08;;;;;;;3.70;1.20;;;;;;;;;;4975605;28;20498;-68
2023/07/20 09:15:33;;;;;;;4.47;1.40;;;;;;;;;;4975632;28;20058;-68
2023/07/20 09:18:02;;;;;;;5.35;1.45;;;;;;;;;;4976146;28;20068;-69
2023/07/20 09:20:27;;;;;;;5.75;1.38;;;;;;;;;;4975195;28;20042;-68
2023/07/20 09:22:52;;;;;;;2.65;1.10;;;;;;;;;;4973950;28;20097;-68
2023/07/20 09:25:22;;;;;;;3.47;1.23;;;;;;;;;;4976076;28;20133;-69
2023/07/20 09:27:48;;;;;;;2.33;1.10;;;;;;;;;;4976042;28;20097;-68
2023/07/20 09:30:15;;;;;;;2.78;1.23;;;;;;;;;;4976223;28;20089;-68
2023/07/20 09:32:43;;;;;;;3.30;1.30;;;;;;;;;;4973584;28;20042;-68
2023/07/20 09:35:16;;;;;;;1.88;1.08;;;;;;;;;;4974897;28;20031;-68
2023/07/20 09:37:55;;;;;;;3.38;1.20;;;;;;;;;;4974737;28;20043;-68
2023/07/20 09:40:21;;;;;;;2.13;1.00;;;;;;;;;;4992395;28;20031;-68
2023/07/20 09:42:47;;;;;;;4.05;1.10;;;;;;;;;;4975598;28;20561;-68
2023/07/20 09:45:12;;;;;;;2.53;1.20;;;;;;;;;;4973561;28;20043;-69
2023/07/20 09:47:38;;;;;;;3.25;1.20;;;;;;;;;;4974560;28;20372;-68
2023/07/20 09:50:07;;;;;;;1.92;0.90;;;;;;;;;;4975747;28;20039;-68
2023/07/20 09:52:33;;;;;;;1.90;0.90;;;;;;;;;;4975651;28;20031;-68
2023/07/20 09:54:58;;;;;;;2.67;1.17;;;;;;;;;;4973505;28;20034;-68
2023/07/20 09:57:24;;;;;;;2.80;1.25;;;;;;;;;;4974230;28;20056;-68
2023/07/20 09:59:50;;;;;;;2.25;1.40;;;;;;;;;;4974063;28;20062;-69
2023/07/20 10:02:29;;;;;;;2.35;1.20;;;;;;;;;;4975568;28;20035;-69
2023/07/20 10:04:55;;;;;;;4.05;1.30;;;;;;;;;;4973866;28;20554;-68
2023/07/20 10:07:23;;;;;;;2.47;1.20;;;;;;;;;;4974283;28;20085;-69
2023/07/20 10:09:51;;;;;;;2.25;1.08;;;;;;;;;;4973622;28;20042;-69
2023/07/20 10:12:17;;;;;;;3.88;1.13;;;;;;;;;;4975150;28;20066;-69
2023/07/20 10:15:00;;;;;;;3.30;1.17;;;;;;;;;;4975266;28;20073;-69
2023/07/20 10:17:25;;;;;;;3.00;1.42;;;;;;;;;;4973982;28;20121;-69
2023/07/20 10:19:54;;;;;;;3.65;1.40;;;;;;;;;;4974052;28;20127;-68
2023/07/20 10:22:25;;;;;;;2.08;1.10;;;;;;;;;;4973833;28;20125;-69
2023/07/20 10:24:53;;;;;;;2.83;1.20;;;;;;;;;;4973836;28;20047;-68
2023/07/20 10:27:20;;;;;;;2.33;1.10;;;;;;;;;;4974744;28;20070;-69
2023/07/20 10:29:46;;;;;;;1.83;1.10;;;;;;;;;;4973585;28;20487;-69
2023/07/20 10:32:12;;;;;;;4.72;1.38;;;;;;;;;;4972355;28;20395;-69
2023/07/20 10:34:37;;;;;;;3.72;1.10;;;;;;;;;;4973820;28;20050;-69
2023/07/20 10:37:02;;;;;;;2.30;1.27;;;;;;;;;;4974758;28;20035;-69
2023/07/20 10:39:31;;;;;;;2.20;1.17;;;;;;;;;;4974876;28;20372;-69
2023/07/20 10:42:01;;;;;;;2.35;1.08;;;;;;;;;;4964807;28;20057;-69
2023/07/20 10:44:27;;;;;;;2.25;1.13;;;;;;;;;;4974658;28;20138;-69
2023/07/20 10:46:59;;;;;;;2.60;1.17;;;;;;;;;;4974794;28;20539;-69
2023/07/20 10:49:26;;;;;;;2.45;1.30;;;;;;;;;;4974534;28;20494;-68
2023/07/20 10:51:58;;;;;;;2.58;1.30;;;;;;;;;;4974856;28;20035;-68
2023/07/20 10:54:23;;;;;;;2.10;1.00;;;;;;;;;;4971039;28;20039;-68
2023/07/20 10:56:48;;;;;;;4.93;1.10;;;;;;;;;;4974449;28;20037;-68
2023/07/20 10:59:38;;;;;;;3.42;1.20;;;;;;;;;;4973350;28;20609;-68
2023/07/20 11:02:07;;;;;;;3.75;1.55;;;;;;;;;;4973439;28;20046;-70
2023/07/20 11:04:46;;;;;;;2.00;1.20;;;;;;;;;;4974533;28;20043;-69
2023/07/20 11:07:38;;;;;;;4.10;1.30;;;;;;;;;;4963877;28;20058;-70
2023/07/20 11:10:14;;;;;;;3.30;1.30;;;;;;;;;;4970459;28;20062;-70
2023/07/20 11:12:40;;;;;;;4.65;1.30;;;;;;;;;;4974422;28;20046;-70
2023/07/20 11:15:05;;;;;;;4.57;1.65;;;;;;;;;;4974250;28;20118;-70
2023/07/20 11:17:32;;;;;;;3.72;1.40;;;;;;;;;;4974240;28;20047;-70
2023/07/20 11:20:00;;;;;;;3.33;1.25;;;;;;;;;;4973250;28;20046;-70
2023/07/20 11:22:26;;;;;;;2.88;1.25;;;;;;;;;;4973154;28;20038;-70
2023/07/20 11:24:55;;;;;;;3.13;1.20;;;;;;;;;;4974553;28;20046;-70
2023/07/20 11:27:22;;;;;;;4.35;1.17;;;;;;;;;;4974067;28;20061;-71
2023/07/20 11:29:49;;;;;;;4.20;1.60;;;;;;;;;;4974332;28;20398;-70
2023/07/20 11:32:24;;;;;;;3.50;1.30;;;;;;;;;;4974260;28;20141;-70
2023/07/20 11:34:49;;;;;;;3.15;1.60;;;;;;;;;;4969342;28;20045;-70
2023/07/20 11:37:15;;;;;;;3.28;1.35;;;;;;;;;;4972914;28;20039;-70
2023/07/20 11:39:40;;;;;;;5.20;1.35;;;;;;;;;;4974165;28;20394;-70
2023/07/20 11:42:06;;;;;;;3.58;1.48;;;;;;;;;;4972050;28;20122;-69
2023/07/20 11:44:32;;;;;;;5.20;1.50;;;;;;;;;;4974039;28;20050;-70
2023/07/20 11:47:11;;;;;;;1.65;1.00;;;;;;;;;;4973980;28;20356;-69
2023/07/20 11:49:38;;;;;;;3.38;1.40;;;;;;;;;;4974174;28;20129;-70
2023/07/20 11:52:06;;;;;;;4.50;1.42;;;;;;;;;;4971826;28;20026;-70
2023/07/20 11:54:32;;;;;;;4.18;1.38;;;;;;;;;;4964807;28;20386;-70
2023/07/20 11:57:05;;;;;;;2.33;1.30;;;;;;;;;;4969855;28;20042;-69
2023/07/20 11:59:31;;;;;;;2.88;1.45;;;;;;;;;;4973468;28;20082;-69
2023/07/20 12:01:57;;;;;;;2.38;1.35;;;;;;;;;;4968999;28;20027;-69
2023/07/20 12:04:23;;;;;;;2.70;1.55;;;;;;;;;;4972460;28;20048;-69
2023/07/20 12:06:48;;;;;;;3.20;1.40;;;;;;;;;;4972583;28;20035;-70
2023/07/20 12:09:15;;;;;;;3.25;1.50;;;;;;;;;;4972006;28;20024;-69
2023/07/20 12:11:43;;;;;;;3.70;1.40;;;;;;;;;;4965613;28;20546;-70
2023/07/20 12:14:08;;;;;;;2.72;1.30;;;;;;;;;;4970274;28;20030;-69
2023/07/20 12:16:36;;;;;;;4.50;1.50;;;;;;;;;;4965657;28;20035;-70
2023/07/20 12:19:01;;;;;;;3.03;1.60;;;;;;;;;;4970007;28;20411;-70
2023/07/20 12:21:27;;;;;;;2.97;1.50;;;;;;;;;;4966399;28;20038;-70
2023/07/20 12:23:52;;;;;;;3.13;1.40;;;;;;;;;;4971262;28;20035;-70
2023/07/20 12:26:20;;;;;;;3.65;1.50;;;;;;;;;;4974686;28;20089;-70
2023/07/20 12:28:45;;;;;;;2.95;1.52;;;;;;;;;;4974126;28;20089;-70
2023/07/20 12:31:13;;;;;;;2.17;1.38;;;;;;;;;;4976937;28;20043;-70
2023/07/20 12:33:38;;;;;;;3.80;1.40;;;;;;;;;;4966223;28;20494;-70
2023/07/20 12:36:04;;;;;;;2.85;1.30;;;;;;;;;;4969765;28;20073;-69
2023/07/20 12:38:30;;;;;;;2.83;1.42;;;;;;;;;;4966348;28;20097;-71
2023/07/20 12:40:56;;;;;;;2.25;1.40;;;;;;;;;;4963346;28;20047;-70
2023/07/20 12:43:21;;;;;;;2.95;1.70;;;;;;;;;;4969318;28;20037;-70
2023/07/20 12:45:47;;;;;;;2.72;1.77;;;;;;;;;;4973140;28;20134;-70
2023/07/20 12:48:12;;;;;;;3.17;1.77;;;;;;;;;;4964151;28;20479;-70
2023/07/20 12:50:38;;;;;;;2.90;1.73;;;;;;;;;;4966879;28;20037;-70
2023/07/20 12:53:03;;;;;;;4.03;1.60;;;;;;;;;;4959609;28;20030;-70
2023/07/20 12:55:29;;;;;;;2.63;1.42;;;;;;;;;;4959414;28;20047;-70
2023/07/20 12:57:54;;;;;;;3.90;1.30;;;;;;;;;;4958572;28;20039;-69
2023/07/20 13:00:22;;;;;;;3.97;1.38;;;;;;;;;;4971180;28;20047;-70
2023/07/20 13:02:47;;;;;;;2.47;1.30;;;;;;;;;;4975217;28;20043;-70
2023/07/20 13:05:12;;;;;;;2.70;1.40;;;;;;;;;;4976549;28;20038;-70
2023/07/20 13:07:39;;;;;;;3.00;1.42;;;;;;;;;;4976462;28;20035;-70
2023/07/20 13:10:05;;;;;;;4.20;1.40;;;;;;;;;;4975358;28;20121;-70
2023/07/20 13:12:32;;;;;;;5.07;1.48;;;;;;;;;;4976299;28;20034;-70
2023/07/20 13:15:01;;;;;;;5.60;1.60;;;;;;;;;;4975290;28;20035;-70
2023/07/20 13:17:27;;;;;;;2.95;1.30;;;;;;;;;;4976259;28;20434;-70
2023/07/20 13:19:52;;;;;;;2.17;1.25;;;;;;;;;;4976360;28;20041;-69
2023/07/20 13:22:18;;;;;;;2.72;1.25;;;;;;;;;;4975961;28;20038;-69
2023/07/20 13:24:45;;;;;;;3.80;1.42;;;;;;;;;;4976139;28;20043;-69
2023/07/20 13:27:10;;;;;;;6.57;1.80;;;;;;;;;;4976059;28;20031;-68
2023/07/20 13:29:36;;;;;;;3.95;1.80;;;;;;;;;;4975505;28;20057;-68
2023/07/20 13:32:04;;;;;;;2.30;1.40;;;;;;;;;;4976091;28;20045;-68
2023/07/20 13:34:29;;;;;;;2.97;1.38;;;;;;;;;;4972456;28;20038;-69
2023/07/20 13:36:54;;;;;;;2.58;1.30;;;;;;;;;;4976150;28;20117;-69
2023/07/20 13:39:20;;;;;;;3.95;1.48;;;;;;;;;;4975651;28;20458;-69
2023/07/20 13:41:45;;;;;;;3.63;1.27;;;;;;;;;;4975514;28;20399;-69
2023/07/20 13:44:10;;;;;;;3.13;1.40;;;;;;;;;;4975917;28;20041;-69
2023/07/20 13:46:36;;;;;;;2.33;1.45;;;;;;;;;;4975257;28;20472;-69
2023/07/20 13:49:01;;;;;;;3.28;1.60;;;;;;;;;;4975736;28;20030;-69
2023/07/20 13:51:26;;;;;;;3.33;1.30;;;;;;;;;;4975645;28;20027;-69
2023/07/20 13:53:52;;;;;;;4.03;1.60;;;;;;;;;;4975638;28;20070;-68
2023/07/20 13:56:17;;;;;;;3.30;1.60;;;;;;;;;;4973435;28;20027;-69
2023/07/20 13:58:42;;;;;;;3.50;1.20;;;;;;;;;;4975241;28;20038;-69
2023/07/20 14:01:08;;;;;;;2.97;1.30;;;;;;;;;;4975488;28;20133;-69
2023/07/20 14:03:33;;;;;;;3.05;1.40;;;;;;;;;;4975455;28;20063;-69
2023/07/20 14:05:58;;;;;;;3.75;1.40;;;;;;;;;;4975643;28;20035;-69
2023/07/20 14:08:24;;;;;;;10.68;1.98;;;;;;;;;;4974958;28;20403;-69
2023/07/20 14:10:49;;;;;;;7.10;1.58;;;;;;;;;;4975462;28;20114;-69
2023/07/20 14:13:14;;;;;;;5.88;1.38;;;;;;;;;;4975330;28;20114;-68
2023/07/20 14:15:40;;;;;;;6.18;1.73;;;;;;;;;;4974960;28;20043;-69
2023/07/20 14:18:05;;;;;;;8.38;1.88;;;;;;;;;;4973557;28;20031;-68
2023/07/20 14:20:31;;;;;;;3.65;1.75;;;;;;;;;;4975179;28;20112;-68
2023/07/20 14:22:56;;;;;;;4.75;1.67;;;;;;;;;;4973741;28;20039;-68
2023/07/20 14:25:21;;;;;;;5.97;1.38;;;;;;;;;;4973861;28;20035;-68
2023/07/20 14:27:47;;;;;;;2.78;1.40;;;;;;;;;;4974882;28;20038;-68
2023/07/20 14:30:12;;;;;;;4.20;1.75;;;;;;;;;;4974983;28;20118;-68
2023/07/20 14:32:38;;;;;;;3.17;1.70;;;;;;;;;;4974791;28;20035;-68
2023/07/20 14:35:04;;;;;;;8.77;1.95;;;;;;;;;;4974753;28;20066;-68
2023/07/20 14:37:29;;;;;;;3.03;1.60;;;;;;;;;;4973508;28;20054;-68
2023/07/20 14:39:55;;;;;;;7.43;2.10;;;;;;;;;;4974890;28;20031;-69